createdAt,value
2023-03-26T00:00:14.204Z,4.10
2023-03-26T00:02:42.136Z,4.20
2023-03-26T00:05:11.412Z,4.10
2023-03-26T00:07:39.060Z,4.20
2023-03-26T00:10:07.223Z,4.30
2023-03-26T00:12:34.781Z,4.20
2023-03-26T00:15:04.566Z,4.30
2023-03-26T00:17:32.184Z,4.40
2023-03-26T00:19:59.871Z,4.50
2023-03-26T00:22:27.784Z,4.40
2023-03-26T00:29:56.747Z,4.60
2023-03-26T00:32:28.007Z,4.70
2023-03-26T00:34:55.864Z,4.80
2023-03-26T00:37:28.129Z,4.80
2023-03-26T00:40:04.669Z,4.90
2023-03-26T00:42:33.770Z,5.00
2023-03-26T00:45:02.146Z,5.00
2023-03-26T00:47:32.101Z,4.50
2023-03-26T00:50:00.153Z,5.20
2023-03-26T00:52:29.872Z,5.20
2023-03-26T00:54:57.812Z,5.30
2023-03-26T01:00:14.906Z,5.40
2023-03-26T01:02:45.281Z,5.50
2023-03-26T01:05:34.305Z,5.50
2023-03-26T01:08:24.126Z,5.60
2023-03-26T01:11:02.845Z,5.60
2023-03-26T01:13:35.479Z,5.70
2023-03-26T01:16:07.817Z,5.80
2023-03-26T01:18:41.176Z,5.80
2023-03-26T01:23:44.401Z,5.90
2023-03-26T01:26:24.397Z,6.00
2023-03-26T01:29:00.633Z,6.10
2023-03-26T01:31:41.661Z,6.20
2023-03-26T01:34:22.368Z,6.30
2023-03-26T01:37:25.801Z,6.40
2023-03-26T01:42:41.932Z,6.50
2023-03-26T01:45:21.712Z,6.60
2023-03-26T01:47:49.683Z,6.60
2023-03-26T01:50:17.421Z,6.60
2023-03-26T01:52:45.265Z,6.70
2023-03-26T01:55:14.528Z,4.40
2023-03-26T01:58:10.555Z,6.70
2023-03-26T02:00:49.032Z,6.80
2023-03-26T02:03:31.607Z,6.70
2023-03-26T02:06:34.453Z,6.70
2023-03-26T02:09:08.458Z,6.60
2023-03-26T02:11:38.758Z,6.60
2023-03-26T02:14:08.516Z,6.60
2023-03-26T02:16:36.430Z,6.60
2023-03-26T02:19:04.552Z,6.60
2023-03-26T02:24:04.897Z,6.50
2023-03-26T02:26:37.743Z,6.60
2023-03-26T02:29:14.097Z,6.60
2023-03-26T02:31:45.014Z,6.60
2023-03-26T02:34:12.812Z,6.60
2023-03-26T02:36:47.434Z,6.60
2023-03-26T02:39:15.501Z,6.60
2023-03-26T02:41:50.610Z,6.60
2023-03-26T02:44:18.458Z,6.60
2023-03-26T02:47:01.436Z,6.60
2023-03-26T02:49:49.413Z,6.50
2023-03-26T02:52:26.447Z,6.50
2023-03-26T02:54:57.452Z,6.50
2023-03-26T02:57:26.615Z,6.50
2023-03-26T03:00:26.698Z,6.50
2023-03-26T03:03:27.766Z,6.50
2023-03-26T03:06:01.214Z,6.50
2023-03-26T03:11:28.185Z,6.50
2023-03-26T03:13:56.590Z,6.50
2023-03-26T03:16:27.300Z,6.50
2023-03-26T03:18:58.295Z,6.50
2023-03-26T03:21:38.086Z,6.60
2023-03-26T03:24:07.469Z,6.60
2023-03-26T03:26:42.470Z,6.60
2023-03-26T03:29:30.782Z,6.60
2023-03-26T03:32:07.825Z,6.60
2023-03-26T03:34:44.746Z,6.60
2023-03-26T03:37:12.876Z,6.60
2023-03-26T03:39:46.725Z,6.60
2023-03-26T03:42:19.555Z,6.60
2023-03-26T03:44:52.451Z,6.60
2023-03-26T03:47:40.739Z,6.60
2023-03-26T03:50:09.309Z,6.60
2023-03-26T03:52:39.525Z,6.60
2023-03-26T03:57:42.844Z,6.60
2023-03-26T04:00:16.557Z,6.60
2023-03-26T04:02:46.294Z,6.70
2023-03-26T04:05:15.382Z,6.60
2023-03-26T04:07:47.614Z,6.70
2023-03-26T04:10:38.078Z,6.70
2023-03-26T04:13:06.113Z,6.70
2023-03-26T04:15:57.105Z,6.70
2023-03-26T04:18:26.389Z,6.20
2023-03-26T04:23:29.087Z,6.70
2023-03-26T04:26:20.304Z,6.70
2023-03-26T04:29:17.227Z,6.70
2023-03-26T04:31:48.081Z,6.70
2023-03-26T04:34:24.484Z,6.70
2023-03-26T04:37:02.733Z,6.70
2023-03-26T04:39:34.924Z,6.70
2023-03-26T04:42:21.599Z,6.80
2023-03-26T04:45:03.172Z,7.30
2023-03-26T04:47:32.658Z,6.80
2023-03-26T04:50:01.121Z,6.80
2023-03-26T04:52:28.765Z,6.70
2023-03-26T04:55:43.392Z,6.80
2023-03-26T04:58:21.340Z,6.80
2023-03-26T05:01:10.210Z,6.70
2023-03-26T05:03:41.587Z,6.70
2023-03-26T05:06:14.002Z,6.70
2023-03-26T05:08:42.739Z,6.70
2023-03-26T05:11:20.923Z,6.70
2023-03-26T05:13:48.641Z,6.70
2023-03-26T05:16:17.549Z,6.60
2023-03-26T05:18:52.734Z,6.60
2023-03-26T05:21:21.361Z,6.70
2023-03-26T05:23:49.390Z,6.70
2023-03-26T05:26:22.072Z,6.60
2023-03-26T05:28:50.635Z,6.70
2023-03-26T05:31:36.012Z,6.70
2023-03-26T05:34:04.891Z,6.60
2023-03-26T05:36:32.570Z,6.60
2023-03-26T05:39:32.950Z,6.60
2023-03-26T05:42:08.068Z,6.60
2023-03-26T05:44:56.004Z,6.60
2023-03-26T05:47:28.465Z,6.60
2023-03-26T05:49:57.047Z,7.00
2023-03-26T05:52:25.584Z,6.60
2023-03-26T05:55:12.304Z,6.50
2023-03-26T05:58:06.539Z,6.50
2023-03-26T06:01:06.570Z,6.50
2023-03-26T06:03:54.323Z,6.50
2023-03-26T06:06:26.373Z,6.80
2023-03-26T06:09:02.690Z,6.40
2023-03-26T06:11:32.593Z,6.40
2023-03-26T06:14:01.942Z,6.40
2023-03-26T06:16:29.791Z,6.40
2023-03-26T06:19:07.870Z,6.40
2023-03-26T06:21:48.824Z,6.40
2023-03-26T06:24:30.990Z,6.40
2023-03-26T06:27:24.513Z,6.40
2023-03-26T06:30:15.379Z,6.40
2023-03-26T06:33:06.402Z,6.50
2023-03-26T06:35:41.707Z,6.50
2023-03-26T06:38:10.691Z,6.40
2023-03-26T06:40:38.931Z,6.40
2023-03-26T06:43:25.508Z,6.50
2023-03-26T06:45:53.268Z,6.50
2023-03-26T06:51:30.364Z,6.50
2023-03-26T06:57:26.120Z,6.60
2023-03-26T07:00:13.596Z,6.60
2023-03-26T07:02:59.591Z,6.60
2023-03-26T07:05:50.700Z,6.60
2023-03-26T07:08:36.781Z,6.60
2023-03-26T07:11:25.622Z,6.50
2023-03-26T07:14:13.233Z,6.50
2023-03-26T07:19:43.248Z,6.50
2023-03-26T07:22:14.618Z,6.50
2023-03-26T07:25:03.666Z,6.50
2023-03-26T07:28:18.124Z,6.50
2023-03-26T07:31:20.395Z,6.50
2023-03-26T07:34:26.752Z,6.50
2023-03-26T07:37:21.793Z,6.50
2023-03-26T07:40:34.353Z,6.60
2023-03-26T07:43:49.578Z,6.60
2023-03-26T07:46:37.204Z,6.60
2023-03-26T07:49:29.540Z,8.70
2023-03-26T07:52:13.316Z,6.60
2023-03-26T07:55:04.904Z,6.70
2023-03-26T07:58:09.460Z,6.70
2023-03-26T08:01:43.681Z,6.70
2023-03-26T08:04:48.067Z,6.70
2023-03-26T08:07:42.556Z,6.70
2023-03-26T08:10:39.581Z,6.70
2023-03-26T08:13:22.564Z,6.70
2023-03-26T08:16:19.495Z,6.70
2023-03-26T08:19:20.201Z,6.60
2023-03-26T08:21:56.016Z,6.60
2023-03-26T08:24:43.344Z,6.60
2023-03-26T08:27:40.055Z,6.60
2023-03-26T08:30:25.642Z,6.60
2023-03-26T08:33:00.406Z,6.70
2023-03-26T08:35:29.337Z,6.70
2023-03-26T08:37:57.075Z,6.60
2023-03-26T08:40:43.518Z,6.70
2023-03-26T08:43:55.118Z,6.80
2023-03-26T08:46:45.828Z,6.80
2023-03-26T08:49:34.061Z,7.00
2023-03-26T08:52:39.731Z,7.10
2023-03-26T08:55:21.171Z,7.30
2023-03-26T08:57:53.577Z,7.30
2023-03-26T09:00:51.988Z,7.60
2023-03-26T09:03:41.680Z,7.70
2023-03-26T09:09:05.189Z,7.90
2023-03-26T09:11:45.586Z,10.10
2023-03-26T09:14:13.224Z,8.00
2023-03-26T09:17:21.079Z,8.10
2023-03-26T09:20:20.685Z,8.10
2023-03-26T09:23:14.992Z,8.00
2023-03-26T09:26:07.620Z,8.00
2023-03-26T09:29:12.366Z,8.00
2023-03-26T09:32:14.229Z,7.90
2023-03-26T09:34:51.153Z,8.00
2023-03-26T09:37:57.461Z,8.10
2023-03-26T09:40:43.986Z,8.10
2023-03-26T09:43:43.766Z,8.30
2023-03-26T09:46:31.586Z,8.30
2023-03-26T09:49:05.127Z,8.40
2023-03-26T09:51:43.266Z,8.40
2023-03-26T09:54:34.077Z,8.50
2023-03-26T09:57:23.231Z,8.60
2023-03-26T10:00:32.652Z,8.60
2023-03-26T10:03:17.951Z,8.70
2023-03-26T10:06:00.696Z,8.80
2023-03-26T10:08:34.197Z,8.90
2023-03-26T10:11:25.366Z,8.90
2023-03-26T10:14:08.834Z,8.90
2023-03-26T10:17:03.120Z,9.00
2023-03-26T10:19:57.212Z,9.00
2023-03-26T10:22:39.809Z,9.10
2023-03-26T10:25:49.829Z,9.10
2023-03-26T10:28:17.518Z,9.20
2023-03-26T10:31:01.796Z,9.20
2023-03-26T10:33:42.941Z,9.20
2023-03-26T10:36:35.809Z,9.20
2023-03-26T10:39:36.000Z,9.30
2023-03-26T10:42:31.503Z,9.30
2023-03-26T10:45:18.096Z,9.50
2023-03-26T10:48:21.486Z,9.60
2023-03-26T10:50:57.525Z,9.70
2023-03-26T10:53:41.107Z,9.60
2023-03-26T10:57:00.750Z,9.60
2023-03-26T10:59:30.823Z,9.60
2023-03-26T11:02:30.353Z,9.80
2023-03-26T11:05:51.728Z,9.90
2023-03-26T11:08:32.209Z,10.40
2023-03-26T11:11:20.487Z,10.50
2023-03-26T11:13:57.892Z,10.50
2023-03-26T11:16:37.196Z,10.40
2023-03-26T11:19:25.444Z,10.40
2023-03-26T11:22:04.619Z,10.40
2023-03-26T11:25:32.057Z,10.20
2023-03-26T11:28:09.455Z,10.20
2023-03-26T11:30:46.486Z,10.20
2023-03-26T11:33:23.255Z,10.00
2023-03-26T11:35:54.183Z,10.00
2023-03-26T11:38:37.981Z,10.00
2023-03-26T11:41:22.848Z,10.00
2023-03-26T11:44:06.465Z,10.20
2023-03-26T11:46:45.787Z,10.20
2023-03-26T11:49:19.424Z,10.50
2023-03-26T11:51:48.888Z,10.80
2023-03-26T11:54:20.678Z,11.10
2023-03-26T11:57:04.482Z,11.40
2023-03-26T12:00:07.993Z,11.60
2023-03-26T12:02:59.066Z,11.40
2023-03-26T12:05:34.283Z,11.30
2023-03-26T12:08:11.324Z,11.30
2023-03-26T12:10:43.125Z,11.30
2023-03-26T12:13:21.995Z,11.20
2023-03-26T12:15:51.280Z,11.00
2023-03-26T12:18:28.839Z,10.90
2023-03-26T12:21:08.741Z,10.90
2023-03-26T12:23:43.969Z,10.80
2023-03-26T12:26:16.652Z,10.80
2023-03-26T12:28:47.646Z,10.80
2023-03-26T12:31:19.673Z,10.70
2023-03-26T12:34:07.954Z,10.70
2023-03-26T12:36:36.493Z,10.70
2023-03-26T12:40:11.853Z,10.90
2023-03-26T12:44:50.878Z,11.00
2023-03-26T12:45:39.686Z,11.00
2023-03-26T12:48:10.405Z,10.80
2023-03-26T12:50:45.882Z,10.70
2023-03-26T12:53:57.843Z,10.50
2023-03-26T12:56:38.925Z,10.20
2023-03-26T12:59:27.818Z,10.10
2023-03-26T13:02:33.798Z,9.90
2023-03-26T13:05:36.976Z,9.90
2023-03-26T13:08:31.164Z,14.10
2023-03-26T13:11:17.872Z,9.70
2023-03-26T13:14:03.842Z,9.70
2023-03-26T13:16:35.138Z,9.80
2023-03-26T13:19:17.830Z,9.90
2023-03-26T13:21:57.157Z,10.00
2023-03-26T13:24:34.615Z,10.00
2023-03-26T13:27:28.030Z,10.10
2023-03-26T13:30:25.656Z,10.40
2023-03-26T13:33:25.723Z,10.70
2023-03-26T13:36:23.860Z,10.90
2023-03-26T13:39:00.791Z,10.80
2023-03-26T13:42:18.577Z,10.80
2023-03-26T13:45:05.080Z,10.80
2023-03-26T13:47:36.918Z,10.70
2023-03-26T13:50:34.193Z,10.40
2023-03-26T13:53:23.012Z,10.30
2023-03-26T13:55:58.321Z,10.10
2023-03-26T13:58:45.188Z,12.80
2023-03-26T14:01:17.456Z,9.90
2023-03-26T14:03:58.281Z,9.80
2023-03-26T14:06:46.657Z,9.70
2023-03-26T14:09:24.605Z,9.70
2023-03-26T14:11:52.122Z,9.60
2023-03-26T14:14:43.477Z,9.60
2023-03-26T14:17:29.539Z,8.10
2023-03-26T14:22:25.375Z,9.80
2023-03-26T14:25:08.815Z,10.20
2023-03-26T14:28:26.238Z,10.50
2023-03-26T14:31:25.638Z,10.80
2023-03-26T14:34:17.882Z,11.00
2023-03-26T14:37:27.375Z,11.10
2023-03-26T14:40:24.602Z,11.10
2023-03-26T14:43:01.901Z,11.00
2023-03-26T14:45:45.882Z,10.90
2023-03-26T14:48:32.110Z,11.00
2023-03-26T14:51:42.505Z,10.70
2023-03-26T14:54:18.733Z,10.40
2023-03-26T14:57:12.757Z,10.10
2023-03-26T15:00:12.377Z,10.00
2023-03-26T15:03:17.662Z,10.00
2023-03-26T15:06:06.607Z,9.90
2023-03-26T15:08:51.489Z,9.90
2023-03-26T15:11:41.256Z,10.00
2023-03-26T15:14:47.111Z,10.10
2023-03-26T15:17:14.674Z,10.00
2023-03-26T15:19:42.532Z,10.00
2023-03-26T15:22:26.220Z,9.70
2023-03-26T15:25:30.905Z,9.80
2023-03-26T15:28:08.311Z,9.60
2023-03-26T15:30:51.456Z,9.50
2023-03-26T15:33:40.774Z,9.50
2023-03-26T15:36:46.123Z,9.40
2023-03-26T15:39:59.379Z,9.40
2023-03-26T15:42:51.605Z,9.30
2023-03-26T15:45:36.323Z,9.20
2023-03-26T15:48:13.133Z,9.20
2023-03-26T15:50:47.242Z,9.10
2023-03-26T15:53:23.651Z,9.10
2023-03-26T15:56:07.036Z,9.00
2023-03-26T16:01:22.645Z,9.00
2023-03-26T16:04:17.888Z,9.00
2023-03-26T16:07:05.641Z,9.00
2023-03-26T16:10:01.655Z,8.90
2023-03-26T16:12:37.773Z,8.90
2023-03-26T16:15:23.650Z,8.90
2023-03-26T16:18:16.981Z,8.90
2023-03-26T16:20:54.289Z,8.80
2023-03-26T16:23:34.073Z,8.80
2023-03-26T16:26:40.451Z,8.80
2023-03-26T16:29:14.542Z,8.70
2023-03-26T16:32:16.690Z,8.70
2023-03-26T16:35:22.133Z,8.70
2023-03-26T16:38:04.720Z,8.70
2023-03-26T16:40:48.541Z,8.50
2023-03-26T16:43:35.724Z,8.50
2023-03-26T16:46:08.011Z,8.40
2023-03-26T16:49:23.699Z,8.40
2023-03-26T16:51:54.349Z,8.30
2023-03-26T16:54:44.118Z,8.30
2023-03-26T16:57:34.813Z,8.20
2023-03-26T17:00:24.629Z,8.20
2023-03-26T17:03:01.758Z,8.20
2023-03-26T17:05:47.813Z,8.20
2023-03-26T17:08:42.621Z,8.10
2023-03-26T17:11:41.131Z,8.00
2023-03-26T17:14:20.994Z,8.00
2023-03-26T17:17:12.362Z,8.00
2023-03-26T17:20:01.870Z,8.00
2023-03-26T17:22:43.618Z,8.00
2023-03-26T17:25:32.894Z,8.00
2023-03-26T17:28:29.748Z,8.00
2023-03-26T17:31:24.360Z,7.90
2023-03-26T17:33:53.562Z,7.90
2023-03-26T17:36:42.963Z,7.80
2023-03-26T17:39:39.863Z,7.70
2023-03-26T17:42:19.253Z,7.60
2023-03-26T17:44:50.657Z,7.60
2023-03-26T17:47:46.838Z,7.60
2023-03-26T17:50:32.165Z,7.50
2023-03-26T17:53:04.954Z,7.50
2023-03-26T17:55:37.563Z,6.40
2023-03-26T17:58:17.280Z,7.40
2023-03-26T18:00:52.610Z,7.30
2023-03-26T18:03:29.650Z,7.30
2023-03-26T18:06:13.033Z,7.20
2023-03-26T18:09:24.882Z,7.10
2023-03-26T18:12:11.163Z,7.10
2023-03-26T18:15:11.596Z,7.10
2023-03-26T18:17:43.034Z,7.00
2023-03-26T18:20:24.406Z,7.00
2023-03-26T18:22:53.515Z,6.90
2023-03-26T18:25:30.601Z,6.90
2023-03-26T18:28:00.912Z,6.90
2023-03-26T18:30:29.896Z,6.80
2023-03-26T18:33:12.726Z,6.80
2023-03-26T18:35:52.173Z,6.80
2023-03-26T18:38:35.623Z,6.80
2023-03-26T18:41:12.208Z,6.80
2023-03-26T18:46:14.911Z,6.70
2023-03-26T18:48:43.859Z,6.70
2023-03-26T18:51:12.296Z,6.60
2023-03-26T18:54:01.229Z,6.60
2023-03-26T18:56:38.892Z,6.60
2023-03-26T18:59:29.196Z,6.60
2023-03-26T19:01:58.996Z,6.50
2023-03-26T19:04:31.609Z,6.50
2023-03-26T19:07:01.653Z,6.50
2023-03-26T19:09:32.376Z,6.50
2023-03-26T19:12:19.635Z,6.50
2023-03-26T19:15:10.242Z,6.60
2023-03-26T19:18:14.562Z,6.50
2023-03-26T19:20:49.722Z,6.50
2023-03-26T19:23:22.372Z,6.40
2023-03-26T19:25:52.802Z,6.50
2023-03-26T19:28:27.951Z,6.50
2023-03-26T19:30:59.058Z,6.50
2023-03-26T19:33:34.403Z,6.50
2023-03-26T19:36:06.033Z,6.50
2023-03-26T19:38:50.892Z,6.50
2023-03-26T19:41:37.991Z,6.40
2023-03-26T19:44:25.120Z,6.50
2023-03-26T19:49:30.078Z,6.40
2023-03-26T19:52:20.530Z,2.60
2023-03-26T19:55:01.797Z,6.50
2023-03-26T19:57:32.191Z,6.50
2023-03-26T20:00:00.714Z,6.50
2023-03-26T20:04:56.830Z,6.50
2023-03-26T20:07:35.578Z,6.50
2023-03-26T20:10:05.952Z,6.60
2023-03-26T20:12:34.217Z,6.50
2023-03-26T20:15:03.461Z,7.90
2023-03-26T20:17:35.064Z,6.50
2023-03-26T20:20:06.390Z,6.40
2023-03-26T20:22:34.765Z,6.40
2023-03-26T20:25:04.030Z,6.50
2023-03-26T20:27:32.449Z,6.50
2023-03-26T20:30:00.648Z,6.40
2023-03-26T20:32:30.509Z,6.40
2023-03-26T20:34:58.580Z,6.40
2023-03-26T20:37:27.403Z,6.40
2023-03-26T20:39:55.633Z,6.30
2023-03-26T20:42:23.615Z,6.30
2023-03-26T20:44:52.999Z,6.30
2023-03-26T20:47:20.851Z,6.30
2023-03-26T20:49:48.500Z,6.30
2023-03-26T20:54:46.606Z,6.20
2023-03-26T20:57:14.341Z,6.20
2023-03-26T20:59:42.408Z,6.10
2023-03-26T21:02:12.532Z,6.10
2023-03-26T21:04:44.982Z,6.20
2023-03-26T21:07:18.142Z,6.10
2023-03-26T21:09:48.884Z,6.10
2023-03-26T21:12:35.150Z,6.10
2023-03-26T21:15:09.966Z,6.10
2023-03-26T21:17:41.623Z,6.10
2023-03-26T21:20:13.747Z,6.10
2023-03-26T21:23:08.956Z,6.20
2023-03-26T21:26:02.063Z,6.20
2023-03-26T21:28:45.790Z,6.20
2023-03-26T21:31:21.970Z,6.20
2023-03-26T21:36:19.920Z,6.20
2023-03-26T21:41:36.986Z,6.20
2023-03-26T21:44:04.664Z,6.20
2023-03-26T21:46:33.754Z,6.20
2023-03-26T21:49:02.036Z,6.20
2023-03-26T21:51:31.169Z,6.10
2023-03-26T21:53:59.341Z,6.10
2023-03-26T21:56:26.850Z,6.10
2023-03-26T21:59:05.172Z,6.10
2023-03-26T22:02:20.793Z,6.00
2023-03-26T22:05:17.430Z,6.00
2023-03-26T22:08:07.115Z,5.90
2023-03-26T22:10:35.746Z,5.90
2023-03-26T22:13:03.421Z,5.90
2023-03-26T22:18:03.681Z,5.90
2023-03-26T22:20:31.522Z,5.90
2023-03-26T22:23:00.277Z,5.90
2023-03-26T22:25:28.019Z,5.80
2023-03-26T22:27:57.728Z,4.00
2023-03-26T22:30:26.185Z,5.80
2023-03-26T22:32:54.197Z,5.80
2023-03-26T22:35:21.940Z,6.80
2023-03-26T22:37:50.712Z,5.80
2023-03-26T22:40:20.768Z,5.80
2023-03-26T22:42:48.598Z,5.80
2023-03-26T22:45:17.218Z,5.80
2023-03-26T22:50:13.759Z,5.70
2023-03-26T22:52:41.586Z,6.90
2023-03-26T22:55:11.606Z,5.70
2023-03-26T22:57:39.921Z,5.70
2023-03-26T23:00:16.155Z,5.70
2023-03-26T23:02:47.173Z,5.70
2023-03-26T23:05:18.791Z,5.70
2023-03-26T23:07:46.538Z,5.60
2023-03-26T23:10:14.222Z,5.60
2023-03-26T23:12:42.107Z,5.60
2023-03-26T23:15:11.124Z,5.60
2023-03-26T23:17:39.398Z,5.60
2023-03-26T23:20:17.708Z,5.60
2023-03-26T23:22:46.032Z,5.50
2023-03-26T23:25:14.003Z,5.50
2023-03-26T23:27:41.932Z,5.40
2023-03-26T23:30:11.171Z,5.50
2023-03-26T23:35:07.793Z,5.30
2023-03-26T23:37:35.806Z,5.10
2023-03-26T23:40:09.859Z,5.20
2023-03-26T23:42:38.203Z,4.80
2023-03-26T23:45:08.528Z,4.70
2023-03-26T23:47:37.762Z,4.50
2023-03-26T23:50:06.729Z,4.30
2023-03-26T23:55:06.029Z,4.10
2023-03-26T23:57:34.196Z,3.90
